Time;durP1;ratioP1;P1;durP2;ratioP2;P2;SDS_P1;SDS_P2;PMS_P1;PMS_P2;Temp;Humidity;BMP_temperature;BMP_pressure;BME280_temperature;BME280_humidity;BME280_pressure;Samples;Min_cycle;Max_cycle;Signal;HPM_P1;HPM_P2
2023/02/24 00:01:27;;;;;;;;;;;;;;;7.13;100.00;95170.47;10391555;28;2428;-69
2023/02/24 00:06:40;;;;;;;;;;;;;;;7.16;100.00;95161.91;10398090;28;1991;-69
2023/02/24 00:11:43;;;;;;;;;;;;;;;7.20;100.00;95149.63;10407637;28;2525;-69
2023/02/24 00:16:45;;;;;;;;;;;;;;;7.04;100.00;95144.25;10400065;28;2436;-69
2023/02/24 00:21:48;;;;;;;;;;;;;;;6.86;100.00;95147.44;10396387;28;2486;-68
2023/02/24 00:26:53;;;;;;;;;;;;;;;6.61;100.00;95142.84;10400114;28;2438;-68
2023/02/24 00:31:58;;;;;;;;;;;;;;;6.48;100.00;95135.34;10393838;28;2409;-70
2023/02/24 00:37:02;;;;;;;;;;;;;;;6.34;100.00;95132.38;10398608;28;2533;-69
2023/02/24 00:42:04;;;;;;;;;;;;;;;6.23;100.00;95133.38;10396867;28;2493;-69
2023/02/24 00:47:16;;;;;;;;;;;;;;;6.09;100.00;95142.94;10398412;28;2132;-70
2023/02/24 00:52:19;;;;;;;;;;;;;;;5.95;100.00;95142.63;10391144;28;2553;-70
2023/02/24 00:57:21;;;;;;;;;;;;;;;5.82;100.00;95135.06;10395887;28;2030;-69
2023/02/24 01:02:25;;;;;;;;;;;;;;;5.78;100.00;95137.41;10400339;28;2674;-69
2023/02/24 01:07:28;;;;;;;;;;;;;;;5.76;100.00;95128.88;10402684;28;2050;-69
2023/02/24 01:12:48;;;;;;;;;;;;;;;5.66;100.00;95120.81;10403262;28;2014;-69
2023/02/24 01:17:51;;;;;;;;;;;;;;;5.63;100.00;95108.81;10407986;28;2497;-68
2023/02/24 01:22:55;;;;;;;;;;;;;;;5.74;100.00;95109.69;10406351;28;2822;-70
2023/02/24 01:27:58;;;;;;;;;;;;;;;5.77;100.00;95109.16;10422347;28;2058;-68
2023/02/24 01:33:02;;;;;;;;;;;;;;;5.80;100.00;95105.19;10395741;28;2525;-68
2023/02/24 01:38:07;;;;;;;;;;;;;;;5.69;100.00;95101.66;10401993;28;2450;-69
2023/02/24 01:43:12;;;;;;;;;;;;;;;5.52;100.00;95103.69;10401721;28;2486;-71
2023/02/24 01:48:16;;;;;;;;;;;;;;;5.39;100.00;95096.94;10391628;28;2478;-68
2023/02/24 01:53:19;;;;;;;;;;;;;;;5.30;100.00;95087.84;10394329;28;2499;-68
2023/02/24 01:58:22;;;;;;;;;;;;;;;5.17;100.00;95081.09;10410503;28;2500;-71
2023/02/24 02:03:25;;;;;;;;;;;;;;;5.08;100.00;95069.28;10403521;28;2600;-73
2023/02/24 02:08:27;;;;;;;;;;;;;;;5.03;100.00;95066.63;10394775;28;2107;-74
2023/02/24 02:13:30;;;;;;;;;;;;;;;4.94;100.00;95068.13;10401238;28;2194;-69
2023/02/24 02:18:33;;;;;;;;;;;;;;;4.84;100.00;95075.00;10397507;28;2507;-68
2023/02/24 02:23:37;;;;;;;;;;;;;;;4.78;100.00;95065.34;10394915;28;2404;-68
2023/02/24 02:28:44;;;;;;;;;;;;;;;4.75;100.00;95059.72;10398185;28;2035;-68
2023/02/24 02:33:47;;;;;;;;;;;;;;;4.70;100.00;95057.81;10397812;28;2463;-68
2023/02/24 02:38:49;;;;;;;;;;;;;;;4.69;100.00;95064.19;10389837;28;2660;-68
2023/02/24 02:43:52;;;;;;;;;;;;;;;4.59;100.00;95059.59;10404190;28;2396;-70
2023/02/24 02:48:55;;;;;;;;;;;;;;;4.51;100.00;95059.25;10401351;28;2498;-70
2023/02/24 02:53:58;;;;;;;;;;;;;;;4.50;100.00;95052.31;10397001;28;2649;-67
2023/02/24 02:59:00;;;;;;;;;;;;;;;4.50;100.00;95042.47;10398713;28;2569;-68
2023/02/24 03:04:04;;;;;;;;;;;;;;;4.50;100.00;95063.78;10410888;28;2560;-69
2023/02/24 03:09:11;;;;;;;;;;;;;;;4.46;100.00;95056.56;10402735;28;1970;-67
2023/02/24 03:14:13;;;;;;;;;;;;;;;4.42;100.00;95055.44;10402077;28;2475;-69
2023/02/24 03:19:20;;;;;;;;;;;;;;;4.43;100.00;95051.72;10406922;28;2049;-69
2023/02/24 03:24:23;;;;;;;;;;;;;;;4.41;100.00;95043.22;10394948;28;2813;-68
2023/02/24 03:29:26;;;;;;;;;;;;;;;4.33;100.00;95041.81;10401275;28;2547;-70
2023/02/24 03:34:28;;;;;;;;;;;;;;;4.28;100.00;95047.09;10402172;28;2439;-68
2023/02/24 03:39:31;;;;;;;;;;;;;;;4.22;100.00;95046.22;10402393;28;2428;-68
2023/02/24 03:44:34;;;;;;;;;;;;;;;4.29;100.00;95046.81;10395057;28;2455;-69
2023/02/24 03:49:37;;;;;;;;;;;;;;;4.42;100.00;95045.59;10400269;28;2521;-69
2023/02/24 03:54:41;;;;;;;;;;;;;;;4.52;100.00;95039.59;10395972;28;2443;-68
2023/02/24 03:59:51;;;;;;;;;;;;;;;4.59;100.00;95034.84;10414283;28;2447;-69
2023/02/24 04:04:54;;;;;;;;;;;;;;;4.55;100.00;95023.09;10400446;28;2412;-68
2023/02/24 04:09:57;;;;;;;;;;;;;;;4.46;100.00;95012.13;10403093;28;2423;-68
2023/02/24 04:15:03;;;;;;;;;;;;;;;4.45;100.00;95017.69;10398722;28;2493;-69
2023/02/24 04:20:11;;;;;;;;;;;;;;;4.45;100.00;95005.16;10404099;28;2500;-68
2023/02/24 04:25:14;;;;;;;;;;;;;;;4.45;100.00;94997.19;10403405;28;2809;-69
2023/02/24 04:30:18;;;;;;;;;;;;;;;4.54;100.00;94994.88;10397803;28;2002;-69
2023/02/24 04:35:23;;;;;;;;;;;;;;;4.61;100.00;94992.81;10398532;28;2443;-70
2023/02/24 04:40:25;;;;;;;;;;;;;;;4.70;100.00;94983.28;10410953;28;2511;-69
2023/02/24 04:45:29;;;;;;;;;;;;;;;4.83;100.00;94982.03;10403989;28;2415;-69
2023/02/24 04:50:32;;;;;;;;;;;;;;;4.89;100.00;94965.81;10396891;28;2682;-69
2023/02/24 04:55:38;;;;;;;;;;;;;;;4.88;100.00;94963.44;10394894;28;2467;-70
2023/02/24 05:00:41;;;;;;;;;;;;;;;4.84;100.00;94947.19;10394194;28;2460;-69
2023/02/24 05:05:43;;;;;;;;;;;;;;;4.82;100.00;94951.94;10395102;28;2493;-69
2023/02/24 05:10:46;;;;;;;;;;;;;;;4.78;100.00;94947.41;10392280;28;2463;-69
2023/02/24 05:15:49;;;;;;;;;;;;;;;4.67;100.00;94929.75;10412750;28;1979;-68
2023/02/24 05:26:15;;;;;;;;;;;;;;;4.45;100.00;94927.19;10398108;28;2315;-70
2023/02/24 05:31:18;;;;;;;;;;;;;;;4.38;100.00;94922.09;10409921;28;2547;-71
2023/02/24 05:36:22;;;;;;;;;;;;;;;4.22;100.00;94923.84;10390910;28;2053;-72
2023/02/24 05:41:24;;;;;;;;;;;;;;;4.27;100.00;94920.44;10398609;28;2494;-76
2023/02/24 05:46:27;;;;;;;;;;;;;;;4.31;100.00;94916.19;10400555;28;2030;-72
2023/02/24 05:51:33;;;;;;;;;;;;;;;4.45;100.00;94905.91;10398483;28;2479;-68
2023/02/24 05:56:55;;;;;;;;;;;;;;;4.52;100.00;94911.84;10387525;28;2065;-70
2023/02/24 06:01:59;;;;;;;;;;;;;;;4.50;100.00;94903.28;10397546;28;2549;-69
2023/02/24 06:07:13;;;;;;;;;;;;;;;4.55;100.00;94911.31;10395259;28;2547;-71
2023/02/24 06:12:20;;;;;;;;;;;;;;;4.43;100.00;94905.38;10394288;28;2042;-70
2023/02/24 06:17:24;;;;;;;;;;;;;;;4.36;100.00;94915.44;10392875;28;2491;-69
2023/02/24 06:22:27;;;;;;;;;;;;;;;4.22;100.00;94910.56;10398418;28;2395;-68
2023/02/24 06:27:29;;;;;;;;;;;;;;;4.23;100.00;94914.81;10397507;28;2057;-69
2023/02/24 06:32:34;;;;;;;;;;;;;;;4.34;100.00;94913.84;10396570;28;2409;-67
2023/02/24 06:37:38;;;;;;;;;;;;;;;4.40;100.00;94914.69;10403729;28;2516;-69
2023/02/24 06:42:40;;;;;;;;;;;;;;;4.51;100.00;94921.66;10406104;28;2455;-69
2023/02/24 06:47:45;;;;;;;;;;;;;;;4.61;100.00;94918.28;10405381;28;2489;-69
2023/02/24 06:52:47;;;;;;;;;;;;;;;4.74;100.00;94925.81;10406654;28;2420;-70
2023/02/24 06:57:51;;;;;;;;;;;;;;;4.61;100.00;94932.38;10406647;28;2147;-69
2023/02/24 07:02:55;;;;;;;;;;;;;;;4.60;100.00;94929.97;10405452;28;2407;-68
2023/02/24 07:07:58;;;;;;;;;;;;;;;4.76;100.00;94923.69;10436129;28;2154;-69
2023/02/24 07:13:02;;;;;;;;;;;;;;;4.83;100.00;94918.91;10399867;28;2220;-68
2023/02/24 07:18:05;;;;;;;;;;;;;;;4.99;100.00;94913.69;10404494;28;2222;-69
2023/02/24 07:23:09;;;;;;;;;;;;;;;5.00;100.00;94907.28;10402134;28;2236;-69
2023/02/24 07:28:12;;;;;;;;;;;;;;;5.32;100.00;94902.63;10411558;28;2639;-70
2023/02/24 07:33:14;;;;;;;;;;;;;;;5.89;100.00;94885.69;10402498;28;2336;-68
2023/02/24 07:38:21;;;;;;;;;;;;;;;6.77;100.00;94889.94;10432842;28;2255;-73
2023/02/24 07:43:25;;;;;;;;;;;;;;;6.92;100.00;94883.75;10403363;28;2183;-69
2023/02/24 07:48:28;;;;;;;;;;;;;;;7.17;100.00;94885.53;10397875;28;2240;-69
2023/02/24 07:53:31;;;;;;;;;;;;;;;7.15;100.00;94871.66;10403255;28;2288;-69
2023/02/24 07:58:34;;;;;;;;;;;;;;;7.12;100.00;94864.97;10400089;28;2137;-68
2023/02/24 08:03:40;;;;;;;;;;;;;;;7.19;100.00;94872.69;10402812;28;2233;-69
2023/02/24 08:08:56;;;;;;;;;;;;;;;7.23;100.00;94858.50;10400144;28;2208;-70
2023/02/24 08:14:01;;;;;;;;;;;;;;;7.39;100.00;94861.13;10403856;28;2163;-70
2023/02/24 08:19:04;;;;;;;;;;;;;;;7.70;100.00;94851.00;10400871;28;2187;-70
2023/02/24 08:24:06;;;;;;;;;;;;;;;7.84;100.00;94830.59;10401939;28;2318;-69
2023/02/24 08:29:09;;;;;;;;;;;;;;;8.24;100.00;94829.47;10399990;28;2215;-68
2023/02/24 08:34:14;;;;;;;;;;;;;;;8.37;100.00;94826.16;10403364;28;2209;-69
2023/02/24 08:39:18;;;;;;;;;;;;;;;8.40;100.00;94830.16;10405266;28;2284;-72
2023/02/24 08:44:20;;;;;;;;;;;;;;;8.30;100.00;94820.31;10435791;28;2175;-71
2023/02/24 08:49:27;;;;;;;;;;;;;;;8.47;100.00;94809.22;10412517;28;2168;-70
2023/02/24 08:54:30;;;;;;;;;;;;;;;8.51;100.00;94810.22;10398175;28;2173;-69
2023/02/24 08:59:48;;;;;;;;;;;;;;;8.49;100.00;94803.56;10378435;28;2160;-73
2023/02/24 09:04:51;;;;;;;;;;;;;;;8.68;100.00;94806.31;10396625;28;2234;-72
2023/02/24 09:09:55;;;;;;;;;;;;;;;9.28;100.00;94804.75;10396155;28;2208;-73
2023/02/24 09:15:00;;;;;;;;;;;;;;;9.61;100.00;94797.63;10404065;28;2222;-73
2023/02/24 09:25:24;;;;;;;;;;;;;;;10.29;100.00;94783.63;10404832;28;2266;-77
2023/02/24 09:30:36;;;;;;;;;;;;;;;10.54;100.00;94760.88;10402733;28;2133;-75
2023/02/24 09:35:41;;;;;;;;;;;;;;;10.94;100.00;94769.28;10403886;28;2114;-73
2023/02/24 09:40:48;;;;;;;;;;;;;;;11.50;100.00;94765.38;10401527;28;2307;-71
2023/02/24 09:45:52;;;;;;;;;;;;;;;11.94;100.00;94741.50;10397049;28;2149;-74
2023/02/24 09:51:02;;;;;;;;;;;;;;;12.13;100.00;94740.19;10399558;28;2160;-74
2023/02/24 09:56:06;;;;;;;;;;;;;;;11.99;100.00;94733.31;10405786;28;2173;-70
2023/02/24 10:01:20;;;;;;;;;;;;;;;11.61;100.00;94729.06;10399395;28;2262;-75
2023/02/24 10:06:23;;;;;;;;;;;;;;;11.90;100.00;94717.91;10390774;28;2147;-72
2023/02/24 10:11:32;;;;;;;;;;;;;;;11.59;100.00;94701.66;10391315;28;2196;-72
2023/02/24 10:16:41;;;;;;;;;;;;;;;11.63;100.00;94702.63;10400164;28;2214;-73
2023/02/24 10:21:59;;;;;;;;;;;;;;;11.66;100.00;94689.66;10404565;28;2151;-71
2023/02/24 10:27:04;;;;;;;;;;;;;;;11.99;100.00;94695.59;10398458;28;2133;-73
2023/02/24 10:32:15;;;;;;;;;;;;;;;12.28;100.00;94682.44;10392551;28;2278;-71
2023/02/24 10:37:18;;;;;;;;;;;;;;;12.38;100.00;94675.97;10393453;28;2143;-72
2023/02/24 10:42:30;;;;;;;;;;;;;;;12.42;100.00;94675.03;10400821;28;2509;-68
2023/02/24 10:47:33;;;;;;;;;;;;;;;12.74;100.00;94667.69;10396863;28;2332;-70
2023/02/24 10:53:09;;;;;;;;;;;;;;;12.89;100.00;94667.22;10394233;28;2224;-69
2023/02/24 10:58:14;;;;;;;;;;;;;;;12.68;100.00;94658.94;10398083;28;2364;-69
2023/02/24 11:03:34;;;;;;;;;;;;;;;12.97;100.00;94644.88;10402435;28;2171;-68
2023/02/24 11:08:53;;;;;;;;;;;;;;;13.11;100.00;94638.56;10407921;28;2209;-70
2023/02/24 11:19:24;;;;;;;;;;;;;;;12.68;100.00;94628.50;10352676;28;2148;-70
2023/02/24 11:24:26;;;;;;;;;;;;;;;12.76;100.00;94608.84;10395753;28;2180;-70
2023/02/24 11:29:29;;;;;;;;;;;;;;;12.65;100.00;94599.47;10399453;28;2305;-69
2023/02/24 11:34:32;;;;;;;;;;;;;;;13.54;100.00;94592.66;10396588;28;2228;-68
2023/02/24 11:39:34;;;;;;;;;;;;;;;13.15;100.00;94580.13;10402888;28;2210;-69
2023/02/24 11:44:37;;;;;;;;;;;;;;;13.39;100.00;94575.06;10401968;28;2151;-69
2023/02/24 11:49:41;;;;;;;;;;;;;;;13.09;100.00;94559.81;10395953;28;2220;-68
2023/02/24 11:54:43;;;;;;;;;;;;;;;12.56;100.00;94552.84;10396612;28;2254;-70
2023/02/24 11:59:46;;;;;;;;;;;;;;;12.17;100.00;94546.44;10391625;28;2210;-69
2023/02/24 12:04:49;;;;;;;;;;;;;;;12.04;100.00;94541.94;10396551;28;2222;-70
2023/02/24 12:09:52;;;;;;;;;;;;;;;11.29;100.00;94547.13;10410860;28;2318;-69
2023/02/24 12:15:00;;;;;;;;;;;;;;;11.14;100.00;94535.97;10402427;28;2097;-70
2023/02/24 12:20:04;;;;;;;;;;;;;;;11.22;100.00;94533.31;10402607;28;2216;-70
2023/02/24 12:25:07;;;;;;;;;;;;;;;10.70;100.00;94519.50;10408021;28;2162;-70
2023/02/24 12:30:21;;;;;;;;;;;;;;;11.02;100.00;94506.94;10407499;28;2239;-69
2023/02/24 12:35:24;;;;;;;;;;;;;;;11.25;100.00;94516.53;10397390;28;2207;-70
2023/02/24 12:40:28;;;;;;;;;;;;;;;11.07;100.00;94506.81;10418359;28;2203;-71
2023/02/24 12:45:31;;;;;;;;;;;;;;;10.97;100.00;94488.22;10400562;28;2168;-69
2023/02/24 12:50:33;;;;;;;;;;;;;;;11.06;100.00;94487.16;10388708;28;2250;-68
2023/02/24 12:55:36;;;;;;;;;;;;;;;10.79;100.00;94481.94;10397106;28;2141;-70
2023/02/24 13:00:38;;;;;;;;;;;;;;;10.63;100.00;94489.59;10393408;28;2205;-71
2023/02/24 13:05:41;;;;;;;;;;;;;;;10.45;100.00;94487.84;10394169;28;2202;-70
2023/02/24 13:10:44;;;;;;;;;;;;;;;10.55;100.00;94476.84;10398012;28;2160;-76
2023/02/24 13:15:47;;;;;;;;;;;;;;;10.48;100.00;94477.28;10392152;28;2149;-69
2023/02/24 13:20:50;;;;;;;;;;;;;;;10.36;100.00;94455.53;10398025;28;2226;-69
2023/02/24 13:25:53;;;;;;;;;;;;;;;10.43;100.00;94460.47;10410015;28;2180;-69
2023/02/24 13:30:56;;;;;;;;;;;;;;;10.48;100.00;94452.31;10401213;28;2431;-68
2023/02/24 13:35:59;;;;;;;;;;;;;;;10.57;100.00;94444.34;10400162;28;2192;-70
2023/02/24 13:41:02;;;;;;;;;;;;;;;10.72;100.00;94430.50;10391726;28;2223;-69
2023/02/24 13:46:04;;;;;;;;;;;;;;;10.64;100.00;94425.88;10398116;28;2243;-68
2023/02/24 13:51:07;;;;;;;;;;;;;;;10.51;100.00;94417.59;10404821;28;2248;-68
2023/02/24 13:56:09;;;;;;;;;;;;;;;10.64;100.00;94426.66;10400779;28;2210;-68
2023/02/24 14:01:12;;;;;;;;;;;;;;;10.53;100.00;94418.06;10408076;28;2233;-68
2023/02/24 14:06:15;;;;;;;;;;;;;;;10.38;100.00;94417.66;10406779;28;2873;-68
2023/02/24 14:11:20;;;;;;;;;;;;;;;10.08;100.00;94425.25;10415025;28;2149;-68
2023/02/24 14:16:23;;;;;;;;;;;;;;;9.92;100.00;94413.25;10402919;28;2285;-68
2023/02/24 14:21:26;;;;;;;;;;;;;;;10.01;100.00;94398.84;10434077;28;2226;-67
2023/02/24 14:26:29;;;;;;;;;;;;;;;10.06;100.00;94395.25;10386933;28;2217;-69
2023/02/24 14:31:32;;;;;;;;;;;;;;;10.14;100.00;94391.84;10400758;28;2205;-69
2023/02/24 14:36:34;;;;;;;;;;;;;;;10.08;100.00;94392.25;10393361;28;2186;-69
2023/02/24 14:41:37;;;;;;;;;;;;;;;9.99;100.00;94393.00;10390736;28;2219;-69
2023/02/24 14:46:40;;;;;;;;;;;;;;;9.58;100.00;94403.78;10391018;28;2211;-71
2023/02/24 14:51:43;;;;;;;;;;;;;;;9.40;100.00;94393.97;10389704;28;2168;-68
2023/02/24 14:56:46;;;;;;;;;;;;;;;9.10;100.00;94401.53;10402374;28;2271;-69
2023/02/24 15:01:48;;;;;;;;;;;;;;;8.93;100.00;94395.97;10403549;28;2266;-69
2023/02/24 15:06:51;;;;;;;;;;;;;;;8.74;100.00;94392.56;10404555;28;2127;-71
2023/02/24 15:11:55;;;;;;;;;;;;;;;8.54;100.00;94383.81;10414055;28;2241;-69
2023/02/24 15:16:59;;;;;;;;;;;;;;;8.21;100.00;94369.59;10403599;28;2372;-72
2023/02/24 15:22:02;;;;;;;;;;;;;;;8.00;100.00;94357.59;10404679;28;2300;-71
2023/02/24 15:27:04;;;;;;;;;;;;;;;7.80;100.00;94361.38;10403924;28;2164;-72
2023/02/24 15:32:07;;;;;;;;;;;;;;;7.70;100.00;94358.84;10406198;28;2152;-72
2023/02/24 15:37:09;;;;;;;;;;;;;;;7.62;100.00;94362.19;10395241;28;2230;-71
2023/02/24 15:42:11;;;;;;;;;;;;;;;7.67;100.00;94365.59;10397471;28;2264;-71
2023/02/24 15:47:15;;;;;;;;;;;;;;;7.64;100.00;94360.84;10400367;28;2097;-72
2023/02/24 15:52:17;;;;;;;;;;;;;;;7.64;100.00;94349.34;10406008;28;2126;-72
2023/02/24 15:57:20;;;;;;;;;;;;;;;7.65;100.00;94338.34;10399784;28;2153;-72
2023/02/24 16:02:23;;;;;;;;;;;;;;;7.68;100.00;94339.63;10394587;28;2442;-71
2023/02/24 16:07:26;;;;;;;;;;;;;;;7.71;100.00;94325.69;10408612;28;2172;-72
2023/02/24 16:12:30;;;;;;;;;;;;;;;7.69;100.00;94314.47;10398450;28;2212;-71
2023/02/24 16:17:33;;;;;;;;;;;;;;;7.67;100.00;94322.78;10404589;28;2210;-71
2023/02/24 16:22:36;;;;;;;;;;;;;;;7.57;100.00;94305.03;10397098;28;2313;-71
2023/02/24 16:27:39;;;;;;;;;;;;;;;7.49;100.00;94302.19;10404369;28;2189;-70
2023/02/24 16:32:41;;;;;;;;;;;;;;;7.49;100.00;94305.66;10399391;28;2157;-70
2023/02/24 16:37:44;;;;;;;;;;;;;;;7.49;100.00;94310.22;10401160;28;2053;-70
2023/02/24 16:42:47;;;;;;;;;;;;;;;7.48;100.00;94344.19;10398575;28;2309;-71
2023/02/24 16:47:50;;;;;;;;;;;;;;;7.31;100.00;94330.50;10398666;28;2210;-72
2023/02/24 16:52:53;;;;;;;;;;;;;;;7.17;100.00;94332.31;10397312;28;2274;-76
2023/02/24 16:57:55;;;;;;;;;;;;;;;7.04;100.00;94321.25;10399887;28;2151;-72
2023/02/24 17:02:58;;;;;;;;;;;;;;;6.96;100.00;94308.53;10396655;28;2220;-71
2023/02/24 17:08:02;;;;;;;;;;;;;;;6.93;100.00;94303.75;10396033;28;2250;-73
2023/02/24 17:13:04;;;;;;;;;;;;;;;6.92;100.00;94307.50;10392607;28;2146;-70
2023/02/24 17:18:06;;;;;;;;;;;;;;;6.97;100.00;94298.63;10393006;28;2279;-70
2023/02/24 17:23:10;;;;;;;;;;;;;;;6.94;100.00;94294.66;10396568;28;2209;-71
2023/02/24 17:28:12;;;;;;;;;;;;;;;6.93;100.00;94298.41;10425167;28;2207;-72
2023/02/24 17:33:15;;;;;;;;;;;;;;;6.89;100.00;94292.06;10403147;28;2139;-72
2023/02/24 17:38:18;;;;;;;;;;;;;;;6.85;100.00;94293.69;10400045;28;2571;-72
2023/02/24 17:43:21;;;;;;;;;;;;;;;6.83;100.00;94298.53;10388359;28;2134;-71
2023/02/24 17:48:24;;;;;;;;;;;;;;;6.78;100.00;94285.25;10392283;28;2213;-71
2023/02/24 17:53:29;;;;;;;;;;;;;;;6.73;100.00;94263.94;10401557;28;2139;-72
2023/02/24 17:58:32;;;;;;;;;;;;;;;6.64;100.00;94274.47;10396534;28;2138;-71
2023/02/24 18:03:34;;;;;;;;;;;;;;;6.63;100.00;94264.88;10397047;28;2163;-72
2023/02/24 18:08:37;;;;;;;;;;;;;;;6.63;100.00;94261.41;10403383;28;2221;-71
2023/02/24 18:13:40;;;;;;;;;;;;;;;6.59;100.00;94247.03;10396513;28;2269;-72
2023/02/24 18:18:43;;;;;;;;;;;;;;;6.57;100.00;94235.84;10390717;28;2181;-71
2023/02/24 18:23:48;;;;;;;;;;;;;;;6.60;100.00;94232.59;10398922;28;2158;-72
2023/02/24 18:28:52;;;;;;;;;;;;;;;6.59;100.00;94223.78;10391076;28;2203;-71
2023/02/24 18:34:05;;;;;;;;;;;;;;;6.66;100.00;94224.22;10411138;28;2170;-69
2023/02/24 18:39:08;;;;;;;;;;;;;;;6.70;100.00;94219.91;10408640;28;2186;-70
2023/02/24 18:44:11;;;;;;;;;;;;;;;6.72;100.00;94209.72;10398945;28;2130;-72
2023/02/24 18:49:14;;;;;;;;;;;;;;;6.82;100.00;94192.78;10406055;28;2137;-71
2023/02/24 18:54:18;;;;;;;;;;;;;;;6.88;100.00;94194.31;10401310;28;2141;-72
2023/02/24 18:59:20;;;;;;;;;;;;;;;6.93;100.00;94180.84;10404398;28;2552;-72
2023/02/24 19:04:23;;;;;;;;;;;;;;;6.95;100.00;94177.91;10398091;28;2181;-72
2023/02/24 19:09:27;;;;;;;;;;;;;;;6.97;100.00;94173.06;10404023;28;2199;-70
2023/02/24 19:14:30;;;;;;;;;;;;;;;6.98;100.00;94188.00;10397747;28;2254;-70
2023/02/24 19:19:32;;;;;;;;;;;;;;;7.03;100.00;94187.94;10398020;28;2528;-69
2023/02/24 19:24:35;;;;;;;;;;;;;;;7.05;100.00;94188.44;10399992;28;2226;-71
2023/02/24 19:29:38;;;;;;;;;;;;;;;7.16;100.00;94200.56;10403568;28;2171;-70
2023/02/24 19:34:41;;;;;;;;;;;;;;;7.14;100.00;94207.31;10401231;28;2215;-71
2023/02/24 19:39:44;;;;;;;;;;;;;;;7.05;100.00;94205.25;10401917;28;2199;-73
2023/02/24 19:44:47;;;;;;;;;;;;;;;7.04;100.00;94227.72;10406994;28;2164;-72
2023/02/24 19:49:50;;;;;;;;;;;;;;;7.00;100.00;94213.38;10415833;28;2197;-69
2023/02/24 19:54:53;;;;;;;;;;;;;;;7.00;100.00;94215.25;10393770;28;2175;-71
2023/02/24 19:59:56;;;;;;;;;;;;;;;6.99;100.00;94205.63;10409061;28;2304;-71
2023/02/24 20:04:59;;;;;;;;;;;;;;;6.95;100.00;94200.09;10401910;28;2267;-71
2023/02/24 20:10:01;;;;;;;;;;;;;;;7.00;100.00;94213.38;10394664;28;2207;-71
2023/02/24 20:15:06;;;;;;;;;;;;;;;6.94;100.00;94198.50;10402540;28;2197;-71
2023/02/24 20:20:08;;;;;;;;;;;;;;;6.86;100.00;94191.13;10408023;28;2161;-70
2023/02/24 20:25:11;;;;;;;;;;;;;;;6.86;100.00;94193.78;10405701;28;2228;-69
2023/02/24 20:30:14;;;;;;;;;;;;;;;6.89;100.00;94195.91;10404056;28;2212;-71
2023/02/24 20:35:19;;;;;;;;;;;;;;;6.79;100.00;94201.38;10406573;28;2196;-74
2023/02/24 20:40:31;;;;;;;;;;;;;;;6.59;100.00;94191.75;10404254;28;2286;-73
2023/02/24 20:45:34;;;;;;;;;;;;;;;6.51;100.00;94203.06;10398505;28;2177;-74
2023/02/24 20:50:36;;;;;;;;;;;;;;;6.26;100.00;94208.72;10397873;28;2467;-71
2023/02/24 20:55:39;;;;;;;;;;;;;;;6.16;100.00;94217.59;10400634;28;2141;-72
2023/02/24 21:00:42;;;;;;;;;;;;;;;5.99;100.00;94217.28;10398712;28;2211;-72
2023/02/24 21:05:44;;;;;;;;;;;;;;;5.70;100.00;94223.38;10402268;28;2204;-71
2023/02/24 21:10:48;;;;;;;;;;;;;;;5.39;100.00;94215.63;10400918;28;2316;-74
2023/02/24 21:15:51;;;;;;;;;;;;;;;5.14;100.00;94216.63;10394238;28;2151;-73
2023/02/24 21:20:53;;;;;;;;;;;;;;;4.79;100.00;94214.19;10402877;28;2140;-73
2023/02/24 21:25:56;;;;;;;;;;;;;;;4.66;100.00;94222.78;10411510;28;2156;-71
2023/02/24 21:30:59;;;;;;;;;;;;;;;4.51;100.00;94221.75;10417012;28;2297;-72
2023/02/24 21:36:04;;;;;;;;;;;;;;;4.39;100.00;94215.16;10397829;28;2138;-72
2023/02/24 21:41:07;;;;;;;;;;;;;;;4.33;100.00;94223.19;10395379;28;2276;-73
2023/02/24 21:46:10;;;;;;;;;;;;;;;4.32;100.00;94205.63;10396459;28;2193;-71
2023/02/24 21:51:12;;;;;;;;;;;;;;;4.32;100.00;94200.28;10399838;28;2135;-72
2023/02/24 21:56:16;;;;;;;;;;;;;;;4.34;100.00;94198.19;10393391;28;2201;-73
2023/02/24 22:01:18;;;;;;;;;;;;;;;4.30;100.00;94197.13;10400607;28;2227;-72
2023/02/24 22:06:22;;;;;;;;;;;;;;;4.27;100.00;94203.00;10398640;28;2156;-72
2023/02/24 22:11:25;;;;;;;;;;;;;;;4.10;100.00;94210.50;10407180;28;2544;-71
2023/02/24 22:16:37;;;;;;;;;;;;;;;3.94;100.00;94211.59;10409943;28;2215;-72
2023/02/24 22:21:42;;;;;;;;;;;;;;;3.84;100.00;94208.97;10397755;28;2155;-71
2023/02/24 22:26:45;;;;;;;;;;;;;;;3.68;100.00;94211.66;10404466;28;2215;-74
2023/02/24 22:31:48;;;;;;;;;;;;;;;3.51;100.00;94211.16;10392729;28;2543;-74
2023/02/24 22:36:52;;;;;;;;;;;;;;;3.24;100.00;94198.13;10403794;28;2220;-73
2023/02/24 22:41:54;;;;;;;;;;;;;;;3.20;100.00;94179.31;10414884;28;2244;-72
2023/02/24 22:46:57;;;;;;;;;;;;;;;3.29;100.00;94174.25;10408643;28;2174;-72
2023/02/24 22:51:59;;;;;;;;;;;;;;;3.28;100.00;94169.19;10413880;28;2177;-71
2023/02/24 22:57:02;;;;;;;;;;;;;;;3.35;100.00;94167.06;10404957;28;2179;-73
2023/02/24 23:02:06;;;;;;;;;;;;;;;3.39;100.00;94197.34;10409761;28;2152;-72
2023/02/24 23:07:09;;;;;;;;;;;;;;;3.28;100.00;94254.19;10405287;28;2214;-71
2023/02/24 23:12:14;;;;;;;;;;;;;;;3.21;100.00;94279.13;10409249;28;2198;-72
2023/02/24 23:17:16;;;;;;;;;;;;;;;2.94;100.00;94287.31;10411775;28;2346;-70
2023/02/24 23:22:19;;;;;;;;;;;;;;;3.04;100.00;94297.16;10437042;28;2160;-72
2023/02/24 23:27:22;;;;;;;;;;;;;;;2.85;100.00;94314.63;10406633;28;2214;-74
2023/02/24 23:32:26;;;;;;;;;;;;;;;2.13;100.00;94326.75;10400116;28;2138;-74
2023/02/24 23:37:29;;;;;;;;;;;;;;;1.90;100.00;94319.97;10405667;28;2310;-72
2023/02/24 23:42:32;;;;;;;;;;;;;;;1.74;100.00;94334.97;10406455;28;2204;-71
2023/02/24 23:47:35;;;;;;;;;;;;;;;1.58;100.00;94342.00;10406189;28;2191;-74
2023/02/24 23:52:37;;;;;;;;;;;;;;;1.35;100.00;94332.53;10405073;28;2195;-73
2023/02/24 23:57:40;;;;;;;;;;;;;;;1.15;100.00;94350.88;10402915;28;2083;-72
